To NAV CANADA Home Page Login to a new session Search on AWWS site Feedback and Comments Disclaimer Vers la page française équivalente Tips FAQ What's new on the site To the Forecasts and Observations / NOTAM section To "File a Flight Plan" website Publications and other links Update of the User's profile FIC Telephone Numbers My Weather Data Folder Route Weather Data Regional Weather Data Local Weather Data To the Forecasts and Observations / NOTAM section
Request Generated 08/26/2016 at 06:38:42 UTC . Weather information available at that time is displayed.

METAR/TAF

GRANDE PRAIRIE/AB    

METAR CYQU 260600Z 16005KT 25SM FEW110 FEW210 13/11 A3010 RMK AC1CI1
SLP202 DENSITY ALT 2200FT=
METAR CYQU 260500Z 18004KT 25SM FEW080 SCT260 14/11 A3012 RMK AC1CI2
SLP212 DENSITY ALT 2300FT=
METAR CYQU 260400Z 16004KT 25SM FEW080 SCT260 17/11 A3013 RMK AC2CI2
SLP215 DENSITY ALT 2600FT=

TAF CYQU 260039Z 2601/2613 31010KT P6SM SCT050 SCT100 BKN250
FM260500 26005KT P6SM SKC
BECMG 2606/2608 17005KT
FM261100 14005KT P6SM SCT250
RMK NXT FCST BY 260700Z=
Your time UTC time
Weather data provided by Environment Canada and NAV CANADA